createdAt,value
2022-11-20T00:03:06.226Z,21.50
2022-11-20T00:08:09.716Z,20.00
2022-11-20T00:13:13.075Z,20.20
2022-11-20T00:18:16.722Z,19.10
2022-11-20T00:23:20.900Z,15.50
2022-11-20T00:28:24.364Z,22.20
2022-11-20T00:33:28.854Z,11.80
2022-11-20T00:38:33.925Z,5.60
2022-11-20T00:43:38.676Z,20.60
2022-11-20T00:48:43.000Z,25.20
2022-11-20T00:53:47.175Z,21.20
2022-11-20T00:58:51.106Z,19.50
2022-11-20T01:03:56.883Z,9.60
2022-11-20T01:09:04.733Z,11.50
2022-11-20T01:14:14.390Z,20.50
2022-11-20T01:19:22.649Z,20.90
2022-11-20T01:24:26.446Z,9.20
2022-11-20T01:29:30.109Z,21.50
2022-11-20T01:34:33.888Z,7.60
2022-11-20T01:39:37.296Z,10.50
2022-11-20T01:45:01.670Z,14.10
2022-11-20T01:50:30.122Z,21.60
2022-11-20T01:55:40.746Z,8.40
2022-11-20T02:00:44.412Z,19.80
2022-11-20T02:06:13.113Z,21.30
2022-11-20T02:11:16.534Z,24.30
2022-11-20T02:16:48.697Z,18.10
2022-11-20T02:22:22.897Z,23.80
2022-11-20T02:27:27.886Z,15.50
2022-11-20T02:32:35.928Z,18.80
2022-11-20T02:37:42.068Z,11.60
2022-11-20T02:42:45.471Z,19.30
2022-11-20T02:47:48.933Z,20.70
2022-11-20T02:52:52.348Z,15.20
2022-11-20T02:57:55.744Z,14.40
2022-11-20T03:02:59.172Z,23.80
2022-11-20T03:08:02.681Z,20.30
2022-11-20T03:13:06.562Z,15.80
2022-11-20T03:18:10.030Z,26.30
2022-11-20T03:23:13.445Z,26.80
2022-11-20T03:28:16.959Z,16.60
2022-11-20T03:33:20.378Z,23.60
2022-11-20T03:38:23.782Z,23.00
2022-11-20T03:43:27.201Z,13.10
2022-11-20T03:48:30.952Z,10.50
2022-11-20T03:53:34.367Z,24.10
2022-11-20T03:58:42.563Z,21.40
2022-11-20T04:03:47.209Z,25.10
2022-11-20T04:08:54.042Z,11.80
2022-11-20T04:14:01.506Z,26.90
2022-11-20T04:19:10.692Z,16.30
2022-11-20T04:24:14.174Z,20.20
2022-11-20T04:29:17.577Z,12.10
2022-11-20T04:34:21.006Z,17.20
2022-11-20T04:39:24.723Z,20.50
2022-11-20T04:44:28.419Z,9.40
2022-11-20T04:49:32.763Z,23.40
2022-11-20T04:54:36.135Z,27.10
2022-11-20T04:59:39.467Z,14.80
2022-11-20T05:04:43.018Z,15.70
2022-11-20T05:09:46.539Z,22.60
2022-11-20T05:14:49.854Z,27.80
2022-11-20T05:19:53.434Z,24.40
2022-11-20T05:24:56.879Z,27.20
2022-11-20T05:30:00.317Z,12.70
2022-11-20T05:35:04.678Z,11.70
2022-11-20T05:40:09.546Z,15.00
2022-11-20T05:45:12.934Z,27.40
2022-11-20T05:50:16.767Z,25.20
2022-11-20T05:55:20.230Z,25.30
2022-11-20T06:00:24.007Z,20.10
2022-11-20T06:05:27.451Z,24.50
2022-11-20T06:10:30.825Z,14.50
2022-11-20T06:15:34.196Z,18.40
2022-11-20T06:20:41.932Z,15.50
2022-11-20T06:25:45.737Z,21.40
2022-11-20T06:30:49.167Z,14.40
2022-11-20T06:35:58.494Z,13.30
2022-11-20T06:41:05.909Z,19.80
2022-11-20T06:46:12.596Z,22.90
2022-11-20T06:51:16.746Z,27.40
2022-11-20T06:56:20.247Z,21.50
2022-11-20T07:01:23.800Z,25.40
2022-11-20T07:06:27.281Z,27.20
2022-11-20T07:11:30.750Z,21.10
2022-11-20T07:16:34.307Z,17.10
2022-11-20T07:21:38.025Z,23.60
2022-11-20T07:26:41.468Z,12.50
2022-11-20T07:31:45.064Z,23.90
2022-11-20T07:36:48.478Z,29.20
2022-11-20T07:41:51.791Z,31.50
2022-11-20T07:46:55.319Z,11.50
2022-11-20T07:52:04.208Z,19.70
2022-11-20T07:57:08.486Z,23.70
2022-11-20T08:02:12.508Z,31.50
2022-11-20T08:07:16.306Z,29.40
2022-11-20T08:12:40.844Z,29.70
2022-11-20T08:17:56.743Z,27.70
2022-11-20T08:23:08.918Z,23.60
2022-11-20T08:28:20.302Z,31.70
2022-11-20T08:33:25.014Z,28.40
2022-11-20T08:38:28.798Z,12.80
2022-11-20T08:43:32.115Z,28.40
2022-11-20T08:48:35.778Z,30.30
2022-11-20T08:53:40.584Z,31.10
2022-11-20T08:59:15.418Z,33.10
2022-11-20T09:04:08.534Z,32.00
2022-11-20T09:09:12.188Z,29.20
2022-11-20T09:14:15.672Z,26.80
2022-11-20T09:19:40.942Z,31.60
2022-11-20T09:24:43.941Z,32.50
2022-11-20T09:29:47.314Z,31.60
2022-11-20T09:34:50.932Z,32.30
2022-11-20T09:39:54.647Z,33.60
2022-11-20T09:45:31.175Z,37.90
2022-11-20T09:50:53.939Z,46.40
2022-11-20T09:55:58.048Z,33.10
2022-11-20T10:01:13.933Z,31.70
2022-11-20T10:06:25.862Z,32.00
2022-11-20T10:11:45.354Z,24.00
2022-11-20T10:17:09.735Z,22.70
2022-11-20T10:22:27.825Z,34.10
2022-11-20T10:28:08.816Z,34.10
2022-11-20T10:33:29.078Z,29.40
2022-11-20T10:38:44.314Z,22.50
2022-11-20T10:43:50.768Z,31.60
2022-11-20T10:48:54.418Z,36.60
2022-11-20T10:54:31.724Z,35.30
2022-11-20T10:59:57.565Z,29.20
2022-11-20T11:05:28.682Z,30.10
2022-11-20T11:10:56.917Z,46.10
2022-11-20T11:16:00.411Z,42.10
2022-11-20T11:21:06.523Z,35.00
2022-11-20T11:26:25.468Z,28.70
2022-11-20T11:31:35.674Z,31.80
2022-11-20T11:36:39.832Z,32.30
2022-11-20T11:41:43.520Z,28.10
2022-11-20T11:46:56.977Z,40.40
2022-11-20T11:52:17.608Z,20.90
2022-11-20T11:57:30.115Z,38.50
2022-11-20T12:02:42.508Z,23.60
2022-11-20T12:08:12.299Z,26.00
2022-11-20T12:13:20.814Z,45.30
2022-11-20T12:18:24.411Z,34.30
2022-11-20T12:23:56.509Z,37.30
2022-11-20T12:29:15.177Z,34.60
2022-11-20T12:35:33.042Z,41.20
2022-11-20T12:41:40.968Z,36.50
2022-11-20T12:46:53.359Z,35.20
2022-11-20T12:52:13.289Z,34.00
2022-11-20T12:58:15.279Z,35.00
2022-11-20T13:04:03.311Z,12.40
2022-11-20T13:09:16.791Z,25.20
2022-11-20T13:14:34.742Z,36.10
2022-11-20T13:19:38.667Z,30.00
2022-11-20T13:24:53.479Z,30.10
2022-11-20T13:30:18.516Z,31.80
2022-11-20T13:35:30.730Z,23.10
2022-11-20T13:40:37.582Z,14.30
2022-11-20T13:45:40.955Z,30.30
2022-11-20T13:50:59.783Z,28.30
2022-11-20T13:56:56.129Z,28.80
2022-11-20T14:02:00.889Z,16.70
2022-11-20T14:07:07.706Z,27.90
2022-11-20T14:12:20.510Z,24.60
2022-11-20T14:17:30.060Z,26.20
2022-11-20T14:22:33.890Z,24.90
2022-11-20T14:27:40.982Z,19.40
2022-11-20T14:32:47.261Z,22.90
2022-11-20T14:37:51.714Z,17.80
2022-11-20T14:42:56.140Z,22.90
2022-11-20T14:48:01.347Z,29.00
2022-11-20T14:53:04.840Z,25.50
2022-11-20T14:58:24.611Z,27.40
2022-11-20T15:03:42.043Z,25.40
2022-11-20T15:08:55.092Z,18.40
2022-11-20T15:14:03.043Z,27.10
2022-11-20T15:19:24.184Z,24.80
2022-11-20T15:24:27.559Z,18.70
2022-11-20T15:29:31.072Z,17.20
2022-11-20T15:34:34.596Z,17.70
2022-11-20T15:39:38.106Z,25.00
2022-11-20T15:44:41.618Z,11.90
2022-11-20T15:49:45.246Z,33.60
2022-11-20T15:54:48.719Z,23.50
2022-11-20T15:59:52.063Z,32.60
2022-11-20T16:04:55.590Z,19.80
2022-11-20T16:09:59.099Z,27.10
2022-11-20T16:15:21.356Z,29.90
2022-11-20T16:20:25.178Z,30.00
2022-11-20T16:25:29.332Z,27.30
2022-11-20T16:30:33.927Z,23.30
2022-11-20T16:35:37.375Z,20.50
2022-11-20T16:40:40.877Z,18.40
2022-11-20T16:45:45.932Z,26.00
2022-11-20T16:50:53.244Z,12.60
2022-11-20T16:55:56.660Z,23.00
2022-11-20T17:01:07.757Z,23.30
2022-11-20T17:06:17.511Z,15.50
2022-11-20T17:11:21.130Z,20.30
2022-11-20T17:16:25.589Z,16.70
2022-11-20T17:21:30.227Z,21.10
2022-11-20T17:26:35.338Z,25.40
2022-11-20T17:31:39.463Z,17.20
2022-11-20T17:36:47.208Z,22.40
2022-11-20T17:42:10.666Z,27.30
2022-11-20T17:47:14.218Z,34.40
2022-11-20T17:52:17.711Z,30.70
2022-11-20T17:57:39.428Z,25.80
2022-11-20T18:02:43.017Z,35.00
2022-11-20T18:07:46.586Z,37.30
2022-11-20T18:12:50.736Z,32.90
2022-11-20T18:17:54.366Z,31.20
2022-11-20T18:22:58.206Z,38.50
2022-11-20T18:28:01.592Z,36.80
2022-11-20T18:33:05.515Z,33.10
2022-11-20T18:38:08.847Z,35.40
2022-11-20T18:43:30.820Z,33.20
2022-11-20T18:48:34.602Z,36.70
2022-11-20T18:53:41.881Z,38.10
2022-11-20T18:58:48.493Z,44.30
2022-11-20T19:03:51.906Z,32.90
2022-11-20T19:08:55.422Z,37.40
2022-11-20T19:13:58.904Z,34.50
2022-11-20T19:19:05.013Z,33.10
2022-11-20T19:24:09.566Z,42.60
2022-11-20T19:29:17.576Z,32.80
2022-11-20T19:34:21.092Z,20.90
2022-11-20T19:39:24.675Z,40.90
2022-11-20T19:44:28.256Z,31.10
2022-11-20T19:49:31.856Z,38.20
2022-11-20T19:54:35.260Z,30.40
2022-11-20T19:59:39.186Z,36.10
2022-11-20T20:04:43.009Z,47.00
2022-11-20T20:09:46.691Z,29.50
2022-11-20T20:14:50.143Z,28.80
2022-11-20T20:19:53.593Z,32.10
2022-11-20T20:24:57.178Z,24.70
2022-11-20T20:30:00.597Z,34.40
2022-11-20T20:35:09.128Z,39.10
2022-11-20T20:40:15.353Z,29.00
2022-11-20T20:45:19.230Z,33.40
2022-11-20T20:50:23.365Z,34.20
2022-11-20T20:55:26.815Z,35.80
2022-11-20T21:00:30.293Z,38.90
2022-11-20T21:05:33.809Z,23.40
2022-11-20T21:10:38.453Z,41.40
2022-11-20T21:15:43.317Z,43.00
2022-11-20T21:21:06.883Z,36.60
2022-11-20T21:26:11.320Z,45.40
2022-11-20T21:31:28.969Z,38.30
2022-11-20T21:36:32.485Z,41.00
2022-11-20T21:41:36.000Z,43.60
2022-11-20T21:46:43.409Z,31.40
2022-11-20T21:51:47.333Z,33.50
2022-11-20T21:56:50.854Z,30.80
2022-11-20T22:01:54.334Z,25.80
2022-11-20T22:06:57.903Z,34.80
2022-11-20T22:12:01.304Z,36.60
2022-11-20T22:17:04.819Z,33.00
2022-11-20T22:22:08.222Z,45.70
2022-11-20T22:27:11.952Z,38.20
2022-11-20T22:32:15.259Z,44.10
2022-11-20T22:37:18.716Z,47.30
2022-11-20T22:42:22.088Z,44.80
2022-11-20T22:47:25.504Z,31.40
2022-11-20T22:52:28.919Z,30.80
2022-11-20T22:57:32.432Z,46.40
2022-11-20T23:02:35.896Z,23.20
2022-11-20T23:07:41.112Z,24.50
2022-11-20T23:12:44.748Z,39.80
2022-11-20T23:17:48.258Z,27.70
2022-11-20T23:22:51.652Z,35.90
2022-11-20T23:27:55.172Z,36.80
2022-11-20T23:32:58.917Z,39.10
2022-11-20T23:38:02.315Z,33.20
2022-11-20T23:43:17.839Z,29.90
2022-11-20T23:48:25.737Z,32.80
2022-11-20T23:53:29.896Z,32.50
2022-11-20T23:58:36.877Z,39.90
